CEST,Max TemperatureF,Mean TemperatureF,Min TemperatureF,Max Dew PointF,MeanDew PointF,Min DewpointF,Max Humidity, Mean Humidity, Min Humidity, Max Sea Level PressureIn, Mean Sea Level PressureIn, Min Sea Level PressureIn, Max VisibilityMiles, Mean VisibilityMiles, Min VisibilityMiles, Max Wind SpeedMPH, Mean Wind SpeedMPH, Max Gust SpeedMPH,PrecipitationIn, CloudCover, Events, WindDirDegrees
2013-5-1,68,58,48,57,51,48,100,75,47,30.06,30.03,30.01,19,7,6,13,4,,0.00,1,,195
2013-5-2,70,58,47,55,51,46,100,76,49,30.06,30.01,29.98,19,7,6,12,4,,0.00,1,,173
2013-5-3,69,58,46,54,48,45,94,69,31,30.09,30.04,30.01,19,7,6,17,5,,0.00,1,,61
2013-5-4,72,59,46,55,49,42,94,71,25,30.15,30.09,30.06,19,7,6,15,4,,0.00,1,,90
2013-5-5,69,57,45,57,53,45,100,78,49,30.16,30.12,30.09,19,8,6,16,4,,0.00,1,,221
2013-5-6,69,58,48,59,56,48,100,83,58,30.15,30.12,30.06,19,7,6,15,4,,0.00,1,Fog,216
2013-5-7,82,68,53,63,55,45,100,77,28,30.12,30.04,29.98,19,4,0,14,3,23,0.00,2,Fog,221
2013-5-8,77,66,55,63,58,52,94,72,38,30.04,29.98,29.95,17,7,6,12,3,,0.00,1,,200
2013-5-9,80,70,60,63,58,45,94,69,30,30.02,29.98,29.95,19,9,6,15,4,,0.00,1,,283
2013-5-10,74,64,55,61,54,48,100,70,33,30.12,30.02,29.95,19,7,6,21,7,,0.00,1,,59
2013-5-11,75,65,55,55,54,51,94,71,35,30.15,30.10,30.06,19,7,6,13,5,,0.00,3,,79
2013-5-12,69,60,50,57,54,48,100,78,52,30.18,30.15,30.12,12,6,6,18,5,,0.00,2,,218
2013-5-13,70,58,47,57,54,46,94,77,51,30.21,30.15,30.06,19,7,6,15,4,,0.00,1,,219
2013-5-14,77,66,55,61,56,53,94,73,47,30.10,29.93,29.74,16,7,6,15,4,16,0.00,1,,105
2013-5-15,71,64,56,61,58,53,94,80,56,29.74,29.58,29.47,12,7,6,14,4,,0.08,3,Rain,211
2013-5-16,67,62,55,61,52,39,100,73,40,29.62,29.52,29.44,19,7,6,17,5,28,0.00,2,Rain-Thunderstorm,326
2013-5-17,70,60,49,55,50,45,88,66,46,29.68,29.62,29.56,12,6,6,25,8,34,0.00,2,Rain-Thunderstorm,220
2013-5-18,68,64,60,59,51,43,88,64,33,29.89,29.75,29.65,19,7,2,22,15,34,0.00,2,Rain,228
2013-5-19,68,63,58,52,48,43,68,57,33,30.06,29.99,29.89,16,7,6,23,16,,0.00,1,,247
2013-5-20,67,60,52,54,50,46,88,73,47,30.07,30.05,30.04,19,7,6,12,4,,0.00,2,,58
2013-5-21,65,58,50,55,52,47,94,82,58,30.08,29.98,29.86,19,7,6,20,6,32,0.12,1,Rain,51
2013-5-22,74,64,55,59,52,46,88,66,38,29.95,29.91,29.86,19,7,6,21,8,26,0.00,2,,294
2013-5-23,71,61,51,57,53,50,94,68,49,29.98,29.93,29.89,12,7,6,16,9,,0.00,1,,242
2013-5-24,71,61,51,52,47,34,94,60,28,30.06,29.98,29.92,16,7,6,20,7,28,0.00,1,,351
2013-5-25,69,58,47,50,44,36,93,57,19,30.09,30.02,29.98,19,7,6,22,7,34,0.00,1,,342
2013-5-26,70,58,47,52,49,45,94,67,39,30.12,30.08,30.01,17,7,6,16,6,22,0.00,2,,125
2013-5-27,68,60,51,61,55,48,94,79,57,30.04,29.90,29.80,16,7,6,12,4,,0.00,3,,136
2013-5-28,75,63,51,61,55,50,100,74,39,29.83,29.78,29.74,16,7,6,21,5,,0.00,2,,239
2013-5-29,70,62,55,55,49,39,94,64,24,29.89,29.84,29.83,19,7,6,18,6,17,0.00,2,,303
2013-5-30,69,58,48,52,47,39,94,62,33,29.95,29.91,29.83,19,7,6,21,7,31,0.01,2,Rain,319
2013-5-31,73,67,61,55,49,45,73,53,30,29.98,29.91,29.86,19,7,6,21,14,31,0.00,1,,301